Alamosa, CO (81101)

2:43 AM MDT on September 05, 2015 (GMT -0600)
NE of Alamosa | | Change Station
CLOSE
Current Station
Personal Weather Station
Location: Alamosa, CO
Elevation: 7556 ft
Nearby Weather Stations

Elev 7556 ft 37.52 °N, 105.85 °W | Updated 11 minutes ago

Overcast
Overcast
55.9 °F
Feels Like 55.9 °F
N
3.0
Wind Variable Wind from SSW
Gusts 11.0 mph

Today
High -- | Low -- °F
--% Chance of Precip.
Yesterday
High -- | Low -- °F
Precip. -- in
6:36 AM 7:26 PM
Waning Gibbous, 51% visible
Pressure 29.92 in
Visibility 10.0 miles
Clouds Scattered Clouds 4700 ft
Mostly Cloudy 6000 ft
Overcast 8000 ft
Dew Point 50 °F
Humidity 81%
Rainfall 0.00 in
Snow Depth Not available.
UV 0 out of 12
Pollen 10.80 out of 12
Air Quality Not available.
Flu Activity Not available.
METAR KALS 050752Z AUTO 18011KT 10SM SCT047 BKN060 OVC080 14/09 A3020 RMK AO2 SLP132 T01390094
Pressure 29.92 in
Visibility 10.0 miles
Clouds Scattered Clouds 4700 ft
Mostly Cloudy 6000 ft
Overcast 8000 ft
Dew Point 50 °F
Humidity 81%
Rainfall 0.00 in
Snow Depth Not available.
UV 0 out of 12
Pollen 10.80 out of 12
Air Quality Not available.
Flu Activity Not available.
METAR KALS 050752Z AUTO 18011KT 10SM SCT047 BKN060 OVC080 14/09 A3020 RMK AO2 SLP132 T01390094

10-Day Weather Forecast

×

Almanac

Astronomy

Sep. 05, 2015 Rise Set
Actual Time
Civil Twilight
Nautical Twilight
Astronomical Twilight
Moon
Length of Visible Light
Length of Day
Tomorrow will be .
, % of the Moon is Illuminated

Today's Extremes

State Highs State Lows

Community

WunderPhotos

Upload Photos

1,852,440 photos uploaded!

WunderBlogs® & News

Nearby

Air Quality

  Air Quality AQ Index Pollutant
Not available.

Snow Depth

Station Depth Elevation

Earthquake Activity

City Distance Mag. Time & Date
Minimum magnitude displayed is 2.5.

Coastal Water Temperatures

Place Temperature

Stations

Nearby Weather Stations

Station Location Temp. Windchill Dew Point Humidity Wind Precip. Elev Updated Type